sensor_id;sensor_type;location;lat;lon;timestamp;temperature;humidity
46492;DHT22;32206;51.446;6.792;2023-09-18T00:00:04;20.60;99.90
46492;DHT22;32206;51.446;6.792;2023-09-18T00:02:38;20.60;99.90
46492;DHT22;32206;51.446;6.792;2023-09-18T00:05:04;20.60;99.90
46492;DHT22;32206;51.446;6.792;2023-09-18T00:07:29;20.50;99.90
46492;DHT22;32206;51.446;6.792;2023-09-18T00:09:55;20.50;99.90
46492;DHT22;32206;51.446;6.792;2023-09-18T00:12:21;20.50;99.90
46492;DHT22;32206;51.446;6.792;2023-09-18T00:14:49;20.50;99.90
46492;DHT22;32206;51.446;6.792;2023-09-18T00:17:15;20.50;99.90
46492;DHT22;32206;51.446;6.792;2023-09-18T00:19:42;20.50;99.90
46492;DHT22;32206;51.446;6.792;2023-09-18T00:22:08;20.50;99.90
46492;DHT22;32206;51.446;6.792;2023-09-18T00:24:33;20.50;99.90
46492;DHT22;32206;51.446;6.792;2023-09-18T00:26:59;20.50;99.90
46492;DHT22;32206;51.446;6.792;2023-09-18T00:29:25;20.50;99.90
46492;DHT22;32206;51.446;6.792;2023-09-18T00:31:53;20.50;99.90
46492;DHT22;32206;51.446;6.792;2023-09-18T00:34:19;20.50;99.90
46492;DHT22;32206;51.446;6.792;2023-09-18T00:36:45;20.50;99.90
46492;DHT22;32206;51.446;6.792;2023-09-18T00:39:10;20.50;99.90
46492;DHT22;32206;51.446;6.792;2023-09-18T00:41:36;20.50;99.90
46492;DHT22;32206;51.446;6.792;2023-09-18T00:44:02;20.50;99.90
46492;DHT22;32206;51.446;6.792;2023-09-18T00:46:28;20.40;99.90
46492;DHT22;32206;51.446;6.792;2023-09-18T00:48:54;20.40;99.90
46492;DHT22;32206;51.446;6.792;2023-09-18T00:51:20;20.40;99.90
46492;DHT22;32206;51.446;6.792;2023-09-18T00:53:47;20.30;99.90
46492;DHT22;32206;51.446;6.792;2023-09-18T00:56:16;20.30;99.90
46492;DHT22;32206;51.446;6.792;2023-09-18T00:58:44;20.30;99.90
46492;DHT22;32206;51.446;6.792;2023-09-18T01:01:11;20.30;99.90
46492;DHT22;32206;51.446;6.792;2023-09-18T01:03:37;20.30;99.90
46492;DHT22;32206;51.446;6.792;2023-09-18T01:09:59;20.30;99.90
46492;DHT22;32206;51.446;6.792;2023-09-18T01:12:33;20.30;99.90
46492;DHT22;32206;51.446;6.792;2023-09-18T01:17:26;20.30;99.90
46492;DHT22;32206;51.446;6.792;2023-09-18T01:23:48;20.30;99.90
46492;DHT22;32206;51.446;6.792;2023-09-18T01:26:14;20.30;99.90
46492;DHT22;32206;51.446;6.792;2023-09-18T01:28:40;20.20;99.90
46492;DHT22;32206;51.446;6.792;2023-09-18T01:31:05;20.30;99.90
46492;DHT22;32206;51.446;6.792;2023-09-18T01:33:32;20.30;99.90
46492;DHT22;32206;51.446;6.792;2023-09-18T01:35:59;20.20;99.90
46492;DHT22;32206;51.446;6.792;2023-09-18T01:38:26;20.30;99.90
46492;DHT22;32206;51.446;6.792;2023-09-18T01:40:53;20.30;99.90
46492;DHT22;32206;51.446;6.792;2023-09-18T01:43:20;20.30;99.90
46492;DHT22;32206;51.446;6.792;2023-09-18T01:45:46;20.30;99.90
46492;DHT22;32206;51.446;6.792;2023-09-18T01:48:13;20.30;99.90
46492;DHT22;32206;51.446;6.792;2023-09-18T01:50:38;20.30;99.90
46492;DHT22;32206;51.446;6.792;2023-09-18T01:53:07;20.30;99.90
46492;DHT22;32206;51.446;6.792;2023-09-18T01:55:33;20.30;99.90
46492;DHT22;32206;51.446;6.792;2023-09-18T01:57:59;20.30;99.90
46492;DHT22;32206;51.446;6.792;2023-09-18T02:00:24;20.30;99.90
46492;DHT22;32206;51.446;6.792;2023-09-18T02:02:50;20.20;99.90
46492;DHT22;32206;51.446;6.792;2023-09-18T02:05:16;20.30;99.90
46492;DHT22;32206;51.446;6.792;2023-09-18T02:07:41;20.30;99.90
46492;DHT22;32206;51.446;6.792;2023-09-18T02:10:07;20.20;99.90
46492;DHT22;32206;51.446;6.792;2023-09-18T02:12:33;20.20;99.90
46492;DHT22;32206;51.446;6.792;2023-09-18T02:14:59;20.20;99.90
46492;DHT22;32206;51.446;6.792;2023-09-18T02:24:14;20.10;99.90
46492;DHT22;32206;51.446;6.792;2023-09-18T02:26:39;20.10;99.90
46492;DHT22;32206;51.446;6.792;2023-09-18T02:29:09;20.10;99.90
46492;DHT22;32206;51.446;6.792;2023-09-18T02:31:37;20.10;99.90
46492;DHT22;32206;51.446;6.792;2023-09-18T02:34:02;20.10;99.90
46492;DHT22;32206;51.446;6.792;2023-09-18T02:36:28;20.10;99.90
46492;DHT22;32206;51.446;6.792;2023-09-18T02:38:54;20.10;99.90
46492;DHT22;32206;51.446;6.792;2023-09-18T02:41:19;20.20;99.90
46492;DHT22;32206;51.446;6.792;2023-09-18T02:43:45;20.20;99.90
46492;DHT22;32206;51.446;6.792;2023-09-18T02:46:10;20.20;99.90
46492;DHT22;32206;51.446;6.792;2023-09-18T02:48:36;20.20;99.90
46492;DHT22;32206;51.446;6.792;2023-09-18T02:51:02;20.20;99.90
46492;DHT22;32206;51.446;6.792;2023-09-18T02:53:28;20.20;99.90
46492;DHT22;32206;51.446;6.792;2023-09-18T02:55:56;20.20;99.90
46492;DHT22;32206;51.446;6.792;2023-09-18T02:58:22;20.20;99.90
46492;DHT22;32206;51.446;6.792;2023-09-18T03:00:51;20.20;99.90
46492;DHT22;32206;51.446;6.792;2023-09-18T03:03:17;20.20;99.90
46492;DHT22;32206;51.446;6.792;2023-09-18T03:05:44;20.20;99.90
46492;DHT22;32206;51.446;6.792;2023-09-18T03:08:10;20.20;99.90
46492;DHT22;32206;51.446;6.792;2023-09-18T03:10:38;20.30;98.30
46492;DHT22;32206;51.446;6.792;2023-09-18T03:13:05;20.50;81.20
46492;DHT22;32206;51.446;6.792;2023-09-18T03:15:31;20.70;46.40
46492;DHT22;32206;51.446;6.792;2023-09-18T03:17:58;20.90;24.90
46492;DHT22;32206;51.446;6.792;2023-09-18T03:20:25;21.00;2.00
46492;DHT22;32206;51.446;6.792;2023-09-18T03:22:52;21.10;1.00
46492;DHT22;32206;51.446;6.792;2023-09-18T03:25:17;21.20;1.00
46492;DHT22;32206;51.446;6.792;2023-09-18T03:27:43;21.20;1.00
46492;DHT22;32206;51.446;6.792;2023-09-18T03:33:31;21.40;1.00
46492;DHT22;32206;51.446;6.792;2023-09-18T03:35:56;21.40;1.00
46492;DHT22;32206;51.446;6.792;2023-09-18T03:38:24;21.40;1.00
46492;DHT22;32206;51.446;6.792;2023-09-18T03:40:50;21.40;1.00
46492;DHT22;32206;51.446;6.792;2023-09-18T03:43:16;21.40;1.00
46492;DHT22;32206;51.446;6.792;2023-09-18T03:45:42;21.40;1.00
46492;DHT22;32206;51.446;6.792;2023-09-18T03:48:08;21.40;1.00
46492;DHT22;32206;51.446;6.792;2023-09-18T03:50:33;21.40;1.00
46492;DHT22;32206;51.446;6.792;2023-09-18T03:52:59;21.40;1.00
46492;DHT22;32206;51.446;6.792;2023-09-18T03:55:25;21.40;1.00
46492;DHT22;32206;51.446;6.792;2023-09-18T03:57:52;21.40;1.00
46492;DHT22;32206;51.446;6.792;2023-09-18T04:00:18;21.50;1.00
46492;DHT22;32206;51.446;6.792;2023-09-18T04:02:43;21.40;1.00
46492;DHT22;32206;51.446;6.792;2023-09-18T04:05:09;21.40;1.00
46492;DHT22;32206;51.446;6.792;2023-09-18T04:07:35;21.40;1.00
46492;DHT22;32206;51.446;6.792;2023-09-18T04:10:00;21.30;1.00
46492;DHT22;32206;51.446;6.792;2023-09-18T04:12:26;21.30;1.00
46492;DHT22;32206;51.446;6.792;2023-09-18T04:14:52;21.30;1.00
46492;DHT22;32206;51.446;6.792;2023-09-18T04:17:18;21.30;1.00
46492;DHT22;32206;51.446;6.792;2023-09-18T04:19:44;21.30;1.00
46492;DHT22;32206;51.446;6.792;2023-09-18T04:22:09;21.30;1.00
46492;DHT22;32206;51.446;6.792;2023-09-18T04:24:35;21.30;1.00
46492;DHT22;32206;51.446;6.792;2023-09-18T04:27:01;21.40;1.00
46492;DHT22;32206;51.446;6.792;2023-09-18T04:29:27;21.30;1.00
46492;DHT22;32206;51.446;6.792;2023-09-18T04:31:52;21.30;1.00
46492;DHT22;32206;51.446;6.792;2023-09-18T04:34:20;21.40;1.00
46492;DHT22;32206;51.446;6.792;2023-09-18T04:36:45;21.30;1.00
46492;DHT22;32206;51.446;6.792;2023-09-18T04:39:11;21.30;1.00
46492;DHT22;32206;51.446;6.792;2023-09-18T04:44:59;21.30;1.00
46492;DHT22;32206;51.446;6.792;2023-09-18T04:47:25;21.40;1.00
46492;DHT22;32206;51.446;6.792;2023-09-18T04:49:50;21.40;1.00
46492;DHT22;32206;51.446;6.792;2023-09-18T04:52:16;21.30;1.00
46492;DHT22;32206;51.446;6.792;2023-09-18T05:01:26;21.30;9.20
46492;DHT22;32206;51.446;6.792;2023-09-18T05:03:52;21.30;3.20
46492;DHT22;32206;51.446;6.792;2023-09-18T05:06:18;21.30;7.10
46492;DHT22;32206;51.446;6.792;2023-09-18T05:08:44;21.30;12.70
46492;DHT22;32206;51.446;6.792;2023-09-18T05:11:09;21.30;12.40
46492;DHT22;32206;51.446;6.792;2023-09-18T05:13:35;21.20;18.00
46492;DHT22;32206;51.446;6.792;2023-09-18T05:16:01;21.20;27.70
46492;DHT22;32206;51.446;6.792;2023-09-18T05:18:28;21.20;26.90
46492;DHT22;32206;51.446;6.792;2023-09-18T05:20:54;21.10;39.60
46492;DHT22;32206;51.446;6.792;2023-09-18T05:23:20;21.10;42.70
46492;DHT22;32206;51.446;6.792;2023-09-18T05:25:45;21.10;45.60
46492;DHT22;32206;51.446;6.792;2023-09-18T05:28:11;21.10;50.20
46492;DHT22;32206;51.446;6.792;2023-09-18T05:30:37;21.10;46.70
46492;DHT22;32206;51.446;6.792;2023-09-18T05:33:09;21.10;47.50
46492;DHT22;32206;51.446;6.792;2023-09-18T05:35:35;21.10;59.80
46492;DHT22;32206;51.446;6.792;2023-09-18T05:38:05;21.00;63.00
46492;DHT22;32206;51.446;6.792;2023-09-18T05:40:31;20.90;72.60
46492;DHT22;32206;51.446;6.792;2023-09-18T05:42:57;20.90;75.90
46492;DHT22;32206;51.446;6.792;2023-09-18T05:45:23;20.90;75.50
46492;DHT22;32206;51.446;6.792;2023-09-18T05:47:50;20.90;81.90
46492;DHT22;32206;51.446;6.792;2023-09-18T05:53:37;20.90;78.80
46492;DHT22;32206;51.446;6.792;2023-09-18T05:56:04;21.00;77.70
46492;DHT22;32206;51.446;6.792;2023-09-18T05:58:31;20.90;84.60
46492;DHT22;32206;51.446;6.792;2023-09-18T06:00:58;20.90;81.40
46492;DHT22;32206;51.446;6.792;2023-09-18T06:03:26;20.90;83.80
46492;DHT22;32206;51.446;6.792;2023-09-18T06:05:51;20.90;85.50
46492;DHT22;32206;51.446;6.792;2023-09-18T06:08:17;20.90;78.80
46492;DHT22;32206;51.446;6.792;2023-09-18T06:10:44;21.00;72.10
46492;DHT22;32206;51.446;6.792;2023-09-18T06:13:10;21.00;74.10
46492;DHT22;32206;51.446;6.792;2023-09-18T06:15:36;21.00;75.80
46492;DHT22;32206;51.446;6.792;2023-09-18T06:18:02;20.90;76.10
46492;DHT22;32206;51.446;6.792;2023-09-18T06:20:29;21.00;79.60
46492;DHT22;32206;51.446;6.792;2023-09-18T06:22:54;21.00;76.80
46492;DHT22;32206;51.446;6.792;2023-09-18T06:25:20;21.00;67.50
46492;DHT22;32206;51.446;6.792;2023-09-18T06:27:46;21.00;69.40
46492;DHT22;32206;51.446;6.792;2023-09-18T06:30:12;21.00;63.50
46492;DHT22;32206;51.446;6.792;2023-09-18T06:32:37;21.00;65.10
46492;DHT22;32206;51.446;6.792;2023-09-18T06:35:03;21.00;64.40
46492;DHT22;32206;51.446;6.792;2023-09-18T06:37:29;21.00;62.00
46492;DHT22;32206;51.446;6.792;2023-09-18T06:39:55;21.00;55.90
46492;DHT22;32206;51.446;6.792;2023-09-18T06:42:22;21.00;54.30
46492;DHT22;32206;51.446;6.792;2023-09-18T06:44:47;21.00;48.10
46492;DHT22;32206;51.446;6.792;2023-09-18T06:47:13;21.00;44.60
46492;DHT22;32206;51.446;6.792;2023-09-18T06:49:40;21.00;41.50
46492;DHT22;32206;51.446;6.792;2023-09-18T06:52:08;21.10;41.50
46492;DHT22;32206;51.446;6.792;2023-09-18T06:54:33;21.10;35.40
46492;DHT22;32206;51.446;6.792;2023-09-18T06:56:59;21.20;30.40
46492;DHT22;32206;51.446;6.792;2023-09-18T06:59:25;21.10;31.00
46492;DHT22;32206;51.446;6.792;2023-09-18T07:01:50;21.10;19.10
46492;DHT22;32206;51.446;6.792;2023-09-18T07:04:16;21.20;14.80
46492;DHT22;32206;51.446;6.792;2023-09-18T07:10:38;21.20;11.20
46492;DHT22;32206;51.446;6.792;2023-09-18T07:13:04;21.30;1.00
46492;DHT22;32206;51.446;6.792;2023-09-18T07:15:30;21.30;1.00
46492;DHT22;32206;51.446;6.792;2023-09-18T07:17:55;21.30;1.00
46492;DHT22;32206;51.446;6.792;2023-09-18T07:20:21;21.30;1.00
46492;DHT22;32206;51.446;6.792;2023-09-18T07:22:48;21.30;1.00
46492;DHT22;32206;51.446;6.792;2023-09-18T07:28:36;21.30;1.00
46492;DHT22;32206;51.446;6.792;2023-09-18T07:31:08;21.40;1.00
46492;DHT22;32206;51.446;6.792;2023-09-18T07:33:34;21.40;1.00
46492;DHT22;32206;51.446;6.792;2023-09-18T07:36:00;21.40;1.00
46492;DHT22;32206;51.446;6.792;2023-09-18T07:38:26;21.40;1.00
46492;DHT22;32206;51.446;6.792;2023-09-18T07:40:52;21.40;1.00
46492;DHT22;32206;51.446;6.792;2023-09-18T07:43:18;21.40;1.00
46492;DHT22;32206;51.446;6.792;2023-09-18T07:45:43;21.40;1.00
46492;DHT22;32206;51.446;6.792;2023-09-18T07:48:09;21.40;1.00
46492;DHT22;32206;51.446;6.792;2023-09-18T07:50:35;21.30;1.00
46492;DHT22;32206;51.446;6.792;2023-09-18T07:53:01;21.30;1.00
46492;DHT22;32206;51.446;6.792;2023-09-18T08:05:33;21.40;1.00
46492;DHT22;32206;51.446;6.792;2023-09-18T08:07:58;21.40;1.00
46492;DHT22;32206;51.446;6.792;2023-09-18T08:10:30;21.40;1.00
46492;DHT22;32206;51.446;6.792;2023-09-18T08:12:56;21.40;1.00
46492;DHT22;32206;51.446;6.792;2023-09-18T08:19:09;21.40;1.00
46492;DHT22;32206;51.446;6.792;2023-09-18T08:21:35;21.50;1.00
46492;DHT22;32206;51.446;6.792;2023-09-18T08:24:00;21.50;1.00
46492;DHT22;32206;51.446;6.792;2023-09-18T08:26:26;21.50;1.00
46492;DHT22;32206;51.446;6.792;2023-09-18T08:28:52;21.50;1.00
46492;DHT22;32206;51.446;6.792;2023-09-18T08:31:18;21.40;1.00
46492;DHT22;32206;51.446;6.792;2023-09-18T08:33:44;21.50;1.00
46492;DHT22;32206;51.446;6.792;2023-09-18T08:39:32;21.50;1.00
46492;DHT22;32206;51.446;6.792;2023-09-18T08:42:05;21.50;1.00
46492;DHT22;32206;51.446;6.792;2023-09-18T08:44:32;21.50;1.00
46492;DHT22;32206;51.446;6.792;2023-09-18T08:46:58;21.50;1.00
46492;DHT22;32206;51.446;6.792;2023-09-18T08:49:25;21.50;1.00
46492;DHT22;32206;51.446;6.792;2023-09-18T08:51:54;21.60;1.00
46492;DHT22;32206;51.446;6.792;2023-09-18T08:54:23;21.50;1.00
46492;DHT22;32206;51.446;6.792;2023-09-18T08:56:51;21.50;1.00
46492;DHT22;32206;51.446;6.792;2023-09-18T08:59:17;21.50;99.90
46492;DHT22;32206;51.446;6.792;2023-09-18T09:01:44;21.50;99.90
46492;DHT22;32206;51.446;6.792;2023-09-18T09:04:10;21.50;1.00
46492;DHT22;32206;51.446;6.792;2023-09-18T09:06:36;21.50;1.00
46492;DHT22;32206;51.446;6.792;2023-09-18T09:09:02;21.50;1.00
46492;DHT22;32206;51.446;6.792;2023-09-18T09:11:28;21.60;1.00
46492;DHT22;32206;51.446;6.792;2023-09-18T09:14:11;21.60;99.90
46492;DHT22;32206;51.446;6.792;2023-09-18T09:16:55;21.60;99.90
46492;DHT22;32206;51.446;6.792;2023-09-18T09:19:34;21.60;99.90
46492;DHT22;32206;51.446;6.792;2023-09-18T09:22:04;21.60;99.90
46492;DHT22;32206;51.446;6.792;2023-09-18T09:24:38;21.70;99.90
46492;DHT22;32206;51.446;6.792;2023-09-18T09:27:04;21.80;99.90
46492;DHT22;32206;51.446;6.792;2023-09-18T09:29:29;21.90;99.90
46492;DHT22;32206;51.446;6.792;2023-09-18T09:31:55;21.90;99.90
46492;DHT22;32206;51.446;6.792;2023-09-18T09:34:25;21.90;99.90
46492;DHT22;32206;51.446;6.792;2023-09-18T09:36:55;21.90;91.50
46492;DHT22;32206;51.446;6.792;2023-09-18T09:39:22;21.90;99.90
46492;DHT22;32206;51.446;6.792;2023-09-18T09:41:51;21.90;99.90
46492;DHT22;32206;51.446;6.792;2023-09-18T09:47:58;21.90;99.90
46492;DHT22;32206;51.446;6.792;2023-09-18T09:53:47;21.90;99.90
46492;DHT22;32206;51.446;6.792;2023-09-18T09:56:15;21.90;99.90
46492;DHT22;32206;51.446;6.792;2023-09-18T09:58:44;21.90;9.20
46492;DHT22;32206;51.446;6.792;2023-09-18T10:01:12;22.00;99.90
46492;DHT22;32206;51.446;6.792;2023-09-18T10:03:44;22.00;99.90
46492;DHT22;32206;51.446;6.792;2023-09-18T10:12:57;22.30;99.90
46492;DHT22;32206;51.446;6.792;2023-09-18T10:15:27;22.30;1.00
46492;DHT22;32206;51.446;6.792;2023-09-18T10:17:56;22.50;32.00
46492;DHT22;32206;51.446;6.792;2023-09-18T10:20:25;22.60;1.00
46492;DHT22;32206;51.446;6.792;2023-09-18T10:22:56;22.70;1.00
46492;DHT22;32206;51.446;6.792;2023-09-18T10:25:28;22.90;1.00
46492;DHT22;32206;51.446;6.792;2023-09-18T10:27:55;23.00;99.90
46492;DHT22;32206;51.446;6.792;2023-09-18T10:30:27;23.10;99.90
46492;DHT22;32206;51.446;6.792;2023-09-18T10:32:56;23.30;28.40
46492;DHT22;32206;51.446;6.792;2023-09-18T10:35:23;23.40;1.00
46492;DHT22;32206;51.446;6.792;2023-09-18T10:37:49;23.50;1.00
46492;DHT22;32206;51.446;6.792;2023-09-18T10:43:45;23.80;99.90
46492;DHT22;32206;51.446;6.792;2023-09-18T10:46:13;23.80;46.00
46492;DHT22;32206;51.446;6.792;2023-09-18T10:48:43;23.80;1.00
46492;DHT22;32206;51.446;6.792;2023-09-18T10:51:12;23.90;1.00
46492;DHT22;32206;51.446;6.792;2023-09-18T10:53:39;24.00;1.00
46492;DHT22;32206;51.446;6.792;2023-09-18T10:56:05;24.10;1.00
46492;DHT22;32206;51.446;6.792;2023-09-18T10:58:32;24.30;1.00
46492;DHT22;32206;51.446;6.792;2023-09-18T11:01:02;24.10;1.00
46492;DHT22;32206;51.446;6.792;2023-09-18T11:03:27;23.80;1.00
46492;DHT22;32206;51.446;6.792;2023-09-18T11:06:04;23.70;1.00
46492;DHT22;32206;51.446;6.792;2023-09-18T11:12:09;23.70;1.40
46492;DHT22;32206;51.446;6.792;2023-09-18T11:22:46;24.10;1.00
46492;DHT22;32206;51.446;6.792;2023-09-18T11:27:55;24.10;99.90
46492;DHT22;32206;51.446;6.792;2023-09-18T11:30:21;24.20;99.90
46492;DHT22;32206;51.446;6.792;2023-09-18T11:32:47;24.30;99.90
46492;DHT22;32206;51.446;6.792;2023-09-18T11:35:13;24.40;99.90
46492;DHT22;32206;51.446;6.792;2023-09-18T11:37:42;24.40;99.90
46492;DHT22;32206;51.446;6.792;2023-09-18T11:40:30;24.30;99.90
46492;DHT22;32206;51.446;6.792;2023-09-18T11:45:54;24.30;99.90
46492;DHT22;32206;51.446;6.792;2023-09-18T11:48:22;24.30;99.90
46492;DHT22;32206;51.446;6.792;2023-09-18T11:50:50;24.60;99.90
46492;DHT22;32206;51.446;6.792;2023-09-18T11:53:17;24.50;99.90
46492;DHT22;32206;51.446;6.792;2023-09-18T11:55:45;24.50;93.10
46492;DHT22;32206;51.446;6.792;2023-09-18T11:58:13;24.60;61.10
46492;DHT22;32206;51.446;6.792;2023-09-18T12:00:39;24.60;46.70
46492;DHT22;32206;51.446;6.792;2023-09-18T12:03:15;24.60;79.50
46492;DHT22;32206;51.446;6.792;2023-09-18T12:05:52;24.80;93.60
46492;DHT22;32206;51.446;6.792;2023-09-18T12:08:18;25.00;58.10
46492;DHT22;32206;51.446;6.792;2023-09-18T12:10:43;24.90;13.70
46492;DHT22;32206;51.446;6.792;2023-09-18T12:13:09;25.00;50.50
46492;DHT22;32206;51.446;6.792;2023-09-18T12:15:37;25.00;33.10
46492;DHT22;32206;51.446;6.792;2023-09-18T12:18:06;24.90;22.70
46492;DHT22;32206;51.446;6.792;2023-09-18T12:20:32;24.70;98.00
46492;DHT22;32206;51.446;6.792;2023-09-18T12:23:00;24.80;71.80
46492;DHT22;32206;51.446;6.792;2023-09-18T12:25:26;24.90;1.00
46492;DHT22;32206;51.446;6.792;2023-09-18T12:27:52;24.80;1.00
46492;DHT22;32206;51.446;6.792;2023-09-18T12:30:20;24.70;1.00
46492;DHT22;32206;51.446;6.792;2023-09-18T12:32:46;24.80;1.00
46492;DHT22;32206;51.446;6.792;2023-09-18T12:35:15;25.20;1.00
46492;DHT22;32206;51.446;6.792;2023-09-18T12:37:43;25.30;1.00
46492;DHT22;32206;51.446;6.792;2023-09-18T12:40:29;25.50;1.00
46492;DHT22;32206;51.446;6.792;2023-09-18T12:42:56;25.60;1.00
46492;DHT22;32206;51.446;6.792;2023-09-18T12:45:22;25.50;1.00
46492;DHT22;32206;51.446;6.792;2023-09-18T12:54:44;25.60;1.00
46492;DHT22;32206;51.446;6.792;2023-09-18T12:57:14;25.60;1.00
46492;DHT22;32206;51.446;6.792;2023-09-18T12:59:40;25.60;1.00
46492;DHT22;32206;51.446;6.792;2023-09-18T13:02:06;25.80;1.00
46492;DHT22;32206;51.446;6.792;2023-09-18T13:04:34;25.90;99.90
46492;DHT22;32206;51.446;6.792;2023-09-18T13:07:13;25.90;1.00
46492;DHT22;32206;51.446;6.792;2023-09-18T13:09:40;25.90;1.00
46492;DHT22;32206;51.446;6.792;2023-09-18T13:12:06;25.90;1.00
46492;DHT22;32206;51.446;6.792;2023-09-18T13:15:01;25.90;99.90
46492;DHT22;32206;51.446;6.792;2023-09-18T13:17:40;25.80;99.90
46492;DHT22;32206;51.446;6.792;2023-09-18T13:23:32;25.40;99.90
46492;DHT22;32206;51.446;6.792;2023-09-18T13:26:05;25.20;99.90
46492;DHT22;32206;51.446;6.792;2023-09-18T13:28:31;25.20;1.00
46492;DHT22;32206;51.446;6.792;2023-09-18T13:34:21;25.50;99.90
46492;DHT22;32206;51.446;6.792;2023-09-18T13:36:47;25.40;99.90
46492;DHT22;32206;51.446;6.792;2023-09-18T13:39:13;25.40;99.90
46492;DHT22;32206;51.446;6.792;2023-09-18T13:41:42;25.30;99.90
46492;DHT22;32206;51.446;6.792;2023-09-18T13:44:08;25.40;99.90
46492;DHT22;32206;51.446;6.792;2023-09-18T13:53:19;25.60;99.90
46492;DHT22;32206;51.446;6.792;2023-09-18T13:59:07;25.70;99.90
46492;DHT22;32206;51.446;6.792;2023-09-18T14:01:35;25.60;99.90
46492;DHT22;32206;51.446;6.792;2023-09-18T14:04:01;25.70;99.90
46492;DHT22;32206;51.446;6.792;2023-09-18T14:09:49;25.70;99.90
46492;DHT22;32206;51.446;6.792;2023-09-18T14:12:15;25.80;99.90
46492;DHT22;32206;51.446;6.792;2023-09-18T14:14:44;25.90;99.90
46492;DHT22;32206;51.446;6.792;2023-09-18T14:17:10;25.90;99.90
46492;DHT22;32206;51.446;6.792;2023-09-18T14:23:35;26.00;99.90
46492;DHT22;32206;51.446;6.792;2023-09-18T14:26:01;26.00;99.90
46492;DHT22;32206;51.446;6.792;2023-09-18T14:28:27;25.90;99.90
46492;DHT22;32206;51.446;6.792;2023-09-18T14:34:16;26.00;99.90
46492;DHT22;32206;51.446;6.792;2023-09-18T14:36:41;25.90;99.90
46492;DHT22;32206;51.446;6.792;2023-09-18T14:39:07;25.90;99.90
46492;DHT22;32206;51.446;6.792;2023-09-18T14:41:35;26.00;99.90
46492;DHT22;32206;51.446;6.792;2023-09-18T14:44:01;26.00;99.90
46492;DHT22;32206;51.446;6.792;2023-09-18T14:46:29;25.80;99.90
46492;DHT22;32206;51.446;6.792;2023-09-18T14:48:54;25.80;99.90
46492;DHT22;32206;51.446;6.792;2023-09-18T14:54:43;26.00;99.90
46492;DHT22;32206;51.446;6.792;2023-09-18T15:00:40;26.10;99.90
46492;DHT22;32206;51.446;6.792;2023-09-18T15:03:06;26.10;99.90
46492;DHT22;32206;51.446;6.792;2023-09-18T15:05:32;26.20;99.90
46492;DHT22;32206;51.446;6.792;2023-09-18T15:07:57;26.30;99.90
46492;DHT22;32206;51.446;6.792;2023-09-18T15:10:23;26.40;99.90
46492;DHT22;32206;51.446;6.792;2023-09-18T15:12:48;26.60;99.90
46492;DHT22;32206;51.446;6.792;2023-09-18T15:15:14;26.50;99.90
46492;DHT22;32206;51.446;6.792;2023-09-18T15:17:39;26.30;99.90
46492;DHT22;32206;51.446;6.792;2023-09-18T15:20:06;26.10;99.90
46492;DHT22;32206;51.446;6.792;2023-09-18T15:22:31;26.10;99.90
46492;DHT22;32206;51.446;6.792;2023-09-18T15:24:57;26.10;99.90
46492;DHT22;32206;51.446;6.792;2023-09-18T15:27:23;26.10;99.90
46492;DHT22;32206;51.446;6.792;2023-09-18T15:29:49;25.80;99.90
46492;DHT22;32206;51.446;6.792;2023-09-18T15:32:14;25.80;99.90
46492;DHT22;32206;51.446;6.792;2023-09-18T15:34:40;25.70;99.90
46492;DHT22;32206;51.446;6.792;2023-09-18T15:37:06;25.80;99.90
46492;DHT22;32206;51.446;6.792;2023-09-18T15:39:32;25.90;99.90
46492;DHT22;32206;51.446;6.792;2023-09-18T15:41:59;25.60;99.90
46492;DHT22;32206;51.446;6.792;2023-09-18T15:44:25;25.50;99.90
46492;DHT22;32206;51.446;6.792;2023-09-18T15:46:51;25.60;99.90
46492;DHT22;32206;51.446;6.792;2023-09-18T15:49:16;25.70;99.90
46492;DHT22;32206;51.446;6.792;2023-09-18T15:55:06;25.60;99.90
46492;DHT22;32206;51.446;6.792;2023-09-18T15:57:33;25.50;99.90
46492;DHT22;32206;51.446;6.792;2023-09-18T16:00:00;25.60;99.90
46492;DHT22;32206;51.446;6.792;2023-09-18T16:02:32;25.60;99.90
46492;DHT22;32206;51.446;6.792;2023-09-18T16:04:58;25.50;99.90
46492;DHT22;32206;51.446;6.792;2023-09-18T16:07:25;25.50;99.90
46492;DHT22;32206;51.446;6.792;2023-09-18T16:09:51;25.50;99.90
46492;DHT22;32206;51.446;6.792;2023-09-18T16:12:18;25.40;99.90
46492;DHT22;32206;51.446;6.792;2023-09-18T16:18:06;25.40;99.90
46492;DHT22;32206;51.446;6.792;2023-09-18T16:20:31;25.40;99.90
46492;DHT22;32206;51.446;6.792;2023-09-18T16:22:58;25.40;99.90
46492;DHT22;32206;51.446;6.792;2023-09-18T16:25:24;25.50;99.90
46492;DHT22;32206;51.446;6.792;2023-09-18T16:27:49;25.50;99.90
46492;DHT22;32206;51.446;6.792;2023-09-18T16:30:16;25.50;99.90
46492;DHT22;32206;51.446;6.792;2023-09-18T16:32:41;25.50;99.90
46492;DHT22;32206;51.446;6.792;2023-09-18T16:35:07;25.50;99.90
46492;DHT22;32206;51.446;6.792;2023-09-18T16:37:33;25.30;99.90
46492;DHT22;32206;51.446;6.792;2023-09-18T16:39:59;25.20;99.90
46492;DHT22;32206;51.446;6.792;2023-09-18T16:42:25;25.10;99.90
46492;DHT22;32206;51.446;6.792;2023-09-18T16:44:54;25.00;99.90
46492;DHT22;32206;51.446;6.792;2023-09-18T16:47:20;24.90;99.90
46492;DHT22;32206;51.446;6.792;2023-09-18T16:49:47;24.80;99.90
46492;DHT22;32206;51.446;6.792;2023-09-18T16:52:13;24.70;99.90
46492;DHT22;32206;51.446;6.792;2023-09-18T16:54:39;24.70;99.90
46492;DHT22;32206;51.446;6.792;2023-09-18T16:57:05;24.60;99.90
46492;DHT22;32206;51.446;6.792;2023-09-18T16:59:31;24.60;99.90
46492;DHT22;32206;51.446;6.792;2023-09-18T17:01:57;24.60;99.90
46492;DHT22;32206;51.446;6.792;2023-09-18T17:04:23;24.50;99.90
46492;DHT22;32206;51.446;6.792;2023-09-18T17:06:48;24.50;99.90
46492;DHT22;32206;51.446;6.792;2023-09-18T17:09:14;24.40;99.90
46492;DHT22;32206;51.446;6.792;2023-09-18T17:11:40;24.40;99.90
46492;DHT22;32206;51.446;6.792;2023-09-18T17:14:06;24.40;99.90
46492;DHT22;32206;51.446;6.792;2023-09-18T17:16:32;24.30;99.90
46492;DHT22;32206;51.446;6.792;2023-09-18T17:19:01;24.30;99.90
46492;DHT22;32206;51.446;6.792;2023-09-18T17:21:27;24.30;99.90
46492;DHT22;32206;51.446;6.792;2023-09-18T17:23:52;24.20;99.90
46492;DHT22;32206;51.446;6.792;2023-09-18T17:26:18;24.10;99.90
46492;DHT22;32206;51.446;6.792;2023-09-18T17:28:44;24.10;99.90
46492;DHT22;32206;51.446;6.792;2023-09-18T17:31:10;24.10;99.90
46492;DHT22;32206;51.446;6.792;2023-09-18T17:33:37;24.10;99.90
46492;DHT22;32206;51.446;6.792;2023-09-18T17:36:04;24.00;99.90
46492;DHT22;32206;51.446;6.792;2023-09-18T17:38:30;23.70;99.90
46492;DHT22;32206;51.446;6.792;2023-09-18T17:40:55;23.50;99.90
46492;DHT22;32206;51.446;6.792;2023-09-18T17:43:21;23.30;99.90
46492;DHT22;32206;51.446;6.792;2023-09-18T17:45:47;23.20;1.00
46492;DHT22;32206;51.446;6.792;2023-09-18T17:48:12;23.20;1.00
46492;DHT22;32206;51.446;6.792;2023-09-18T17:50:38;22.90;1.00
46492;DHT22;32206;51.446;6.792;2023-09-18T17:53:04;22.80;1.00